sensor_id;sensor_type;location;lat;lon;timestamp;P1;durP1;ratioP1;P2;durP2;ratioP2
10293;SDS011;5192;50.328;7.610;2023-05-10T00:01:48;1.13;;;0.70;;
10293;SDS011;5192;50.328;7.610;2023-05-10T00:04:16;0.80;;;0.80;;
10293;SDS011;5192;50.328;7.610;2023-05-10T00:06:43;0.80;;;0.80;;
10293;SDS011;5192;50.328;7.610;2023-05-10T00:09:09;0.97;;;0.80;;
10293;SDS011;5192;50.328;7.610;2023-05-10T00:11:36;0.67;;;0.63;;
10293;SDS011;5192;50.328;7.610;2023-05-10T00:14:04;0.70;;;0.70;;
10293;SDS011;5192;50.328;7.610;2023-05-10T00:16:30;0.70;;;0.70;;
10293;SDS011;5192;50.328;7.610;2023-05-10T00:18:57;1.40;;;0.73;;
10293;SDS011;5192;50.328;7.610;2023-05-10T00:21:24;2.97;;;0.80;;
10293;SDS011;5192;50.328;7.610;2023-05-10T00:23:49;1.23;;;0.60;;
10293;SDS011;5192;50.328;7.610;2023-05-10T00:26:16;1.20;;;0.80;;
10293;SDS011;5192;50.328;7.610;2023-05-10T00:28:44;1.57;;;0.80;;
10293;SDS011;5192;50.328;7.610;2023-05-10T00:31:12;1.23;;;0.80;;
10293;SDS011;5192;50.328;7.610;2023-05-10T00:33:41;0.80;;;0.80;;
10293;SDS011;5192;50.328;7.610;2023-05-10T00:36:09;0.60;;;0.60;;
10293;SDS011;5192;50.328;7.610;2023-05-10T00:38:34;0.80;;;0.80;;
10293;SDS011;5192;50.328;7.610;2023-05-10T00:41:02;2.40;;;0.80;;
10293;SDS011;5192;50.328;7.610;2023-05-10T00:43:28;1.63;;;0.80;;
10293;SDS011;5192;50.328;7.610;2023-05-10T00:45:56;1.53;;;0.70;;
10293;SDS011;5192;50.328;7.610;2023-05-10T00:48:23;0.70;;;0.70;;
10293;SDS011;5192;50.328;7.610;2023-05-10T00:50:48;1.20;;;0.77;;
10293;SDS011;5192;50.328;7.610;2023-05-10T00:53:17;1.83;;;0.70;;
10293;SDS011;5192;50.328;7.610;2023-05-10T00:55:46;0.70;;;0.70;;
10293;SDS011;5192;50.328;7.610;2023-05-10T00:58:13;0.80;;;0.80;;
10293;SDS011;5192;50.328;7.610;2023-05-10T01:00:41;2.53;;;0.87;;
10293;SDS011;5192;50.328;7.610;2023-05-10T01:03:10;3.27;;;0.80;;
10293;SDS011;5192;50.328;7.610;2023-05-10T01:05:37;2.33;;;0.70;;
10293;SDS011;5192;50.328;7.610;2023-05-10T01:08:05;1.60;;;0.77;;
10293;SDS011;5192;50.328;7.610;2023-05-10T01:10:33;0.70;;;0.70;;
10293;SDS011;5192;50.328;7.610;2023-05-10T01:13:01;0.93;;;0.87;;
10293;SDS011;5192;50.328;7.610;2023-05-10T01:15:30;0.83;;;0.83;;
10293;SDS011;5192;50.328;7.610;2023-05-10T01:17:57;1.03;;;0.80;;
10293;SDS011;5192;50.328;7.610;2023-05-10T01:20:31;1.70;;;0.90;;
10293;SDS011;5192;50.328;7.610;2023-05-10T01:35:18;1.10;;;1.00;;
10293;SDS011;5192;50.328;7.610;2023-05-10T01:38:13;0.93;;;0.90;;
10293;SDS011;5192;50.328;7.610;2023-05-10T01:41:39;3.83;;;0.90;;
10293;SDS011;5192;50.328;7.610;2023-05-10T01:46:48;0.80;;;0.80;;
10293;SDS011;5192;50.328;7.610;2023-05-10T01:49:43;1.63;;;0.90;;
10293;SDS011;5192;50.328;7.610;2023-05-10T01:52:17;2.30;;;1.10;;
10293;SDS011;5192;50.328;7.610;2023-05-10T01:55:23;2.47;;;0.97;;
10293;SDS011;5192;50.328;7.610;2023-05-10T01:57:43;2.60;;;0.87;;
10293;SDS011;5192;50.328;7.610;2023-05-10T02:00:13;3.03;;;0.80;;
10293;SDS011;5192;50.328;7.610;2023-05-10T02:02:42;1.20;;;0.90;;
10293;SDS011;5192;50.328;7.610;2023-05-10T02:05:12;1.40;;;0.90;;
10293;SDS011;5192;50.328;7.610;2023-05-10T02:07:39;1.70;;;1.00;;
10293;SDS011;5192;50.328;7.610;2023-05-10T02:10:08;1.67;;;0.97;;
10293;SDS011;5192;50.328;7.610;2023-05-10T02:12:37;3.17;;;1.47;;
10293;SDS011;5192;50.328;7.610;2023-05-10T02:15:11;2.00;;;1.00;;
10293;SDS011;5192;50.328;7.610;2023-05-10T02:17:43;2.43;;;1.10;;
10293;SDS011;5192;50.328;7.610;2023-05-10T02:20:12;1.87;;;1.10;;
10293;SDS011;5192;50.328;7.610;2023-05-10T02:22:47;0.97;;;0.97;;
10293;SDS011;5192;50.328;7.610;2023-05-10T02:25:17;1.30;;;1.20;;
10293;SDS011;5192;50.328;7.610;2023-05-10T02:27:46;2.10;;;1.20;;
10293;SDS011;5192;50.328;7.610;2023-05-10T02:30:15;3.90;;;1.87;;
10293;SDS011;5192;50.328;7.610;2023-05-10T02:32:44;3.30;;;1.57;;
10293;SDS011;5192;50.328;7.610;2023-05-10T02:35:11;2.23;;;2.03;;
10293;SDS011;5192;50.328;7.610;2023-05-10T02:37:39;3.53;;;1.90;;
10293;SDS011;5192;50.328;7.610;2023-05-10T02:40:06;3.03;;;1.70;;
10293;SDS011;5192;50.328;7.610;2023-05-10T02:42:35;1.93;;;1.60;;
10293;SDS011;5192;50.328;7.610;2023-05-10T02:45:11;4.00;;;1.80;;
10293;SDS011;5192;50.328;7.610;2023-05-10T02:47:53;1.83;;;1.73;;
10293;SDS011;5192;50.328;7.610;2023-05-10T02:50:20;2.80;;;1.97;;
10293;SDS011;5192;50.328;7.610;2023-05-10T02:52:49;2.47;;;1.80;;
10293;SDS011;5192;50.328;7.610;2023-05-10T02:55:26;3.10;;;2.00;;
10293;SDS011;5192;50.328;7.610;2023-05-10T02:58:03;3.77;;;2.00;;
10293;SDS011;5192;50.328;7.610;2023-05-10T03:00:30;2.40;;;2.13;;
10293;SDS011;5192;50.328;7.610;2023-05-10T03:03:02;2.30;;;2.10;;
10293;SDS011;5192;50.328;7.610;2023-05-10T03:05:29;2.63;;;1.83;;
10293;SDS011;5192;50.328;7.610;2023-05-10T03:07:56;3.87;;;2.10;;
10293;SDS011;5192;50.328;7.610;2023-05-10T03:10:26;3.13;;;2.00;;
10293;SDS011;5192;50.328;7.610;2023-05-10T03:15:57;1.50;;;1.40;;
10293;SDS011;5192;50.328;7.610;2023-05-10T03:19:11;2.43;;;1.57;;
10293;SDS011;5192;50.328;7.610;2023-05-10T03:21:40;2.13;;;1.80;;
10293;SDS011;5192;50.328;7.610;2023-05-10T03:24:17;2.20;;;1.93;;
10293;SDS011;5192;50.328;7.610;2023-05-10T03:26:47;2.07;;;1.87;;
10293;SDS011;5192;50.328;7.610;2023-05-10T03:29:15;3.13;;;2.30;;
10293;SDS011;5192;50.328;7.610;2023-05-10T03:31:43;2.10;;;1.90;;
10293;SDS011;5192;50.328;7.610;2023-05-10T03:34:12;2.07;;;1.87;;
10293;SDS011;5192;50.328;7.610;2023-05-10T03:36:37;2.93;;;1.90;;
10293;SDS011;5192;50.328;7.610;2023-05-10T03:39:05;2.23;;;1.80;;
10293;SDS011;5192;50.328;7.610;2023-05-10T03:41:33;3.60;;;1.90;;
10293;SDS011;5192;50.328;7.610;2023-05-10T03:44:01;3.00;;;2.00;;
10293;SDS011;5192;50.328;7.610;2023-05-10T03:46:28;2.10;;;2.00;;
10293;SDS011;5192;50.328;7.610;2023-05-10T03:48:56;2.73;;;2.40;;
10293;SDS011;5192;50.328;7.610;2023-05-10T03:51:24;3.17;;;2.00;;
10293;SDS011;5192;50.328;7.610;2023-05-10T03:53:54;5.00;;;2.30;;
10293;SDS011;5192;50.328;7.610;2023-05-10T03:56:23;2.90;;;2.30;;
10293;SDS011;5192;50.328;7.610;2023-05-10T03:58:50;2.40;;;2.20;;
10293;SDS011;5192;50.328;7.610;2023-05-10T04:01:15;4.63;;;2.40;;
10293;SDS011;5192;50.328;7.610;2023-05-10T04:03:42;3.47;;;2.70;;
10293;SDS011;5192;50.328;7.610;2023-05-10T04:06:08;2.93;;;2.67;;
10293;SDS011;5192;50.328;7.610;2023-05-10T04:08:38;4.50;;;2.67;;
10293;SDS011;5192;50.328;7.610;2023-05-10T04:11:07;3.67;;;2.40;;
10293;SDS011;5192;50.328;7.610;2023-05-10T04:13:36;13.40;;;3.33;;
10293;SDS011;5192;50.328;7.610;2023-05-10T04:16:05;5.13;;;2.43;;
10293;SDS011;5192;50.328;7.610;2023-05-10T04:18:32;3.07;;;2.80;;
10293;SDS011;5192;50.328;7.610;2023-05-10T04:20:58;3.63;;;2.60;;
10293;SDS011;5192;50.328;7.610;2023-05-10T04:23:27;3.40;;;3.10;;
10293;SDS011;5192;50.328;7.610;2023-05-10T04:26:02;2.80;;;2.60;;
10293;SDS011;5192;50.328;7.610;2023-05-10T04:28:30;2.70;;;2.47;;
10293;SDS011;5192;50.328;7.610;2023-05-10T04:31:01;4.03;;;2.73;;
10293;SDS011;5192;50.328;7.610;2023-05-10T04:33:38;3.23;;;2.70;;
10293;SDS011;5192;50.328;7.610;2023-05-10T04:36:07;4.00;;;3.03;;
10293;SDS011;5192;50.328;7.610;2023-05-10T04:38:35;4.27;;;3.10;;
10293;SDS011;5192;50.328;7.610;2023-05-10T04:41:05;6.50;;;3.03;;
10293;SDS011;5192;50.328;7.610;2023-05-10T04:43:34;5.60;;;2.97;;
10293;SDS011;5192;50.328;7.610;2023-05-10T04:46:00;5.23;;;2.30;;
10293;SDS011;5192;50.328;7.610;2023-05-10T04:48:27;4.87;;;2.90;;
10293;SDS011;5192;50.328;7.610;2023-05-10T04:50:53;3.10;;;2.77;;
10293;SDS011;5192;50.328;7.610;2023-05-10T04:53:19;4.63;;;3.37;;
10293;SDS011;5192;50.328;7.610;2023-05-10T04:55:47;3.17;;;2.83;;
10293;SDS011;5192;50.328;7.610;2023-05-10T04:58:15;7.20;;;2.77;;
10293;SDS011;5192;50.328;7.610;2023-05-10T05:00:42;5.20;;;3.13;;
10293;SDS011;5192;50.328;7.610;2023-05-10T05:03:07;3.67;;;3.17;;
10293;SDS011;5192;50.328;7.610;2023-05-10T05:05:33;3.73;;;3.10;;
10293;SDS011;5192;50.328;7.610;2023-05-10T05:08:00;2.97;;;2.73;;
10293;SDS011;5192;50.328;7.610;2023-05-10T05:10:27;3.03;;;2.73;;
10293;SDS011;5192;50.328;7.610;2023-05-10T05:12:54;3.20;;;2.90;;
10293;SDS011;5192;50.328;7.610;2023-05-10T05:15:20;3.43;;;2.80;;
10293;SDS011;5192;50.328;7.610;2023-05-10T05:17:48;3.47;;;2.93;;
10293;SDS011;5192;50.328;7.610;2023-05-10T05:20:13;2.63;;;2.40;;
10293;SDS011;5192;50.328;7.610;2023-05-10T05:22:40;3.77;;;2.80;;
10293;SDS011;5192;50.328;7.610;2023-05-10T05:25:06;3.90;;;2.70;;
10293;SDS011;5192;50.328;7.610;2023-05-10T05:27:33;2.70;;;2.50;;
10293;SDS011;5192;50.328;7.610;2023-05-10T05:30:01;2.70;;;2.50;;
10293;SDS011;5192;50.328;7.610;2023-05-10T05:32:30;7.27;;;3.00;;
10293;SDS011;5192;50.328;7.610;2023-05-10T05:34:58;5.00;;;2.70;;
10293;SDS011;5192;50.328;7.610;2023-05-10T05:37:24;2.73;;;2.53;;
10293;SDS011;5192;50.328;7.610;2023-05-10T05:39:51;2.87;;;2.23;;
10293;SDS011;5192;50.328;7.610;2023-05-10T05:42:19;3.40;;;2.47;;
10293;SDS011;5192;50.328;7.610;2023-05-10T05:44:47;3.43;;;2.43;;
10293;SDS011;5192;50.328;7.610;2023-05-10T05:47:14;2.47;;;2.10;;
10293;SDS011;5192;50.328;7.610;2023-05-10T05:49:41;3.43;;;2.50;;
10293;SDS011;5192;50.328;7.610;2023-05-10T05:52:08;2.97;;;2.20;;
10293;SDS011;5192;50.328;7.610;2023-05-10T05:54:34;3.07;;;2.07;;
10293;SDS011;5192;50.328;7.610;2023-05-10T05:57:01;2.60;;;2.40;;
10293;SDS011;5192;50.328;7.610;2023-05-10T05:59:27;3.23;;;2.23;;
10293;SDS011;5192;50.328;7.610;2023-05-10T06:01:54;2.87;;;2.07;;
10293;SDS011;5192;50.328;7.610;2023-05-10T06:04:22;5.50;;;2.50;;
10293;SDS011;5192;50.328;7.610;2023-05-10T06:06:49;2.43;;;2.23;;
10293;SDS011;5192;50.328;7.610;2023-05-10T06:09:15;3.23;;;2.20;;
10293;SDS011;5192;50.328;7.610;2023-05-10T06:11:43;6.17;;;2.57;;
10293;SDS011;5192;50.328;7.610;2023-05-10T06:14:11;3.07;;;2.00;;
10293;SDS011;5192;50.328;7.610;2023-05-10T06:16:38;4.37;;;2.50;;
10293;SDS011;5192;50.328;7.610;2023-05-10T06:19:04;5.37;;;2.50;;
10293;SDS011;5192;50.328;7.610;2023-05-10T06:21:31;2.70;;;2.23;;
10293;SDS011;5192;50.328;7.610;2023-05-10T06:23:59;2.90;;;2.70;;
10293;SDS011;5192;50.328;7.610;2023-05-10T06:26:25;2.97;;;2.63;;
10293;SDS011;5192;50.328;7.610;2023-05-10T06:28:54;3.17;;;2.50;;
10293;SDS011;5192;50.328;7.610;2023-05-10T06:31:19;2.83;;;2.00;;
10293;SDS011;5192;50.328;7.610;2023-05-10T06:33:47;3.20;;;2.53;;
10293;SDS011;5192;50.328;7.610;2023-05-10T06:36:16;3.80;;;2.47;;
10293;SDS011;5192;50.328;7.610;2023-05-10T06:38:43;4.57;;;2.23;;
10293;SDS011;5192;50.328;7.610;2023-05-10T06:41:09;4.10;;;2.20;;
10293;SDS011;5192;50.328;7.610;2023-05-10T06:43:36;3.37;;;2.50;;
10293;SDS011;5192;50.328;7.610;2023-05-10T06:46:07;3.67;;;2.50;;
10293;SDS011;5192;50.328;7.610;2023-05-10T06:48:43;3.80;;;1.90;;
10293;SDS011;5192;50.328;7.610;2023-05-10T06:51:18;6.57;;;2.47;;
10293;SDS011;5192;50.328;7.610;2023-05-10T06:53:47;6.03;;;2.80;;
10293;SDS011;5192;50.328;7.610;2023-05-10T06:56:14;3.33;;;2.47;;
10293;SDS011;5192;50.328;7.610;2023-05-10T06:58:43;3.53;;;2.43;;
10293;SDS011;5192;50.328;7.610;2023-05-10T07:01:09;6.43;;;2.53;;
10293;SDS011;5192;50.328;7.610;2023-05-10T07:03:35;3.87;;;2.70;;
10293;SDS011;5192;50.328;7.610;2023-05-10T07:06:01;5.63;;;2.70;;
10293;SDS011;5192;50.328;7.610;2023-05-10T07:08:32;3.43;;;2.50;;
10293;SDS011;5192;50.328;7.610;2023-05-10T07:11:03;4.77;;;3.07;;
10293;SDS011;5192;50.328;7.610;2023-05-10T07:13:30;4.30;;;2.70;;
10293;SDS011;5192;50.328;7.610;2023-05-10T07:15:57;4.40;;;2.53;;
10293;SDS011;5192;50.328;7.610;2023-05-10T07:18:29;4.37;;;3.00;;
10293;SDS011;5192;50.328;7.610;2023-05-10T07:20:57;4.70;;;2.63;;
10293;SDS011;5192;50.328;7.610;2023-05-10T07:23:24;4.93;;;2.53;;
10293;SDS011;5192;50.328;7.610;2023-05-10T07:25:51;4.93;;;2.37;;
10293;SDS011;5192;50.328;7.610;2023-05-10T07:28:17;5.67;;;2.60;;
10293;SDS011;5192;50.328;7.610;2023-05-10T07:30:45;4.67;;;3.00;;
10293;SDS011;5192;50.328;7.610;2023-05-10T07:33:13;3.83;;;2.47;;
10293;SDS011;5192;50.328;7.610;2023-05-10T07:35:42;4.87;;;2.77;;
10293;SDS011;5192;50.328;7.610;2023-05-10T07:38:10;5.17;;;3.00;;
10293;SDS011;5192;50.328;7.610;2023-05-10T07:40:38;5.47;;;3.03;;
10293;SDS011;5192;50.328;7.610;2023-05-10T07:43:08;3.73;;;2.70;;
10293;SDS011;5192;50.328;7.610;2023-05-10T07:45:36;5.83;;;2.90;;
10293;SDS011;5192;50.328;7.610;2023-05-10T07:48:01;5.97;;;3.10;;
10293;SDS011;5192;50.328;7.610;2023-05-10T07:50:29;5.87;;;3.03;;
10293;SDS011;5192;50.328;7.610;2023-05-10T07:52:56;4.03;;;2.83;;
10293;SDS011;5192;50.328;7.610;2023-05-10T07:55:24;5.57;;;2.80;;
10293;SDS011;5192;50.328;7.610;2023-05-10T07:57:53;4.57;;;2.70;;
10293;SDS011;5192;50.328;7.610;2023-05-10T08:00:21;3.43;;;2.77;;
10293;SDS011;5192;50.328;7.610;2023-05-10T08:02:51;3.90;;;3.30;;
10293;SDS011;5192;50.328;7.610;2023-05-10T08:05:19;6.30;;;2.97;;
10293;SDS011;5192;50.328;7.610;2023-05-10T08:07:47;4.43;;;3.10;;
10293;SDS011;5192;50.328;7.610;2023-05-10T08:10:13;4.50;;;2.87;;
10293;SDS011;5192;50.328;7.610;2023-05-10T08:12:42;4.93;;;2.53;;
10293;SDS011;5192;50.328;7.610;2023-05-10T08:15:10;3.67;;;2.70;;
10293;SDS011;5192;50.328;7.610;2023-05-10T08:17:38;2.83;;;2.37;;
10293;SDS011;5192;50.328;7.610;2023-05-10T08:20:06;4.27;;;2.57;;
10293;SDS011;5192;50.328;7.610;2023-05-10T08:22:35;4.47;;;2.57;;
10293;SDS011;5192;50.328;7.610;2023-05-10T08:25:02;4.47;;;2.70;;
10293;SDS011;5192;50.328;7.610;2023-05-10T08:27:28;4.23;;;2.40;;
10293;SDS011;5192;50.328;7.610;2023-05-10T08:29:56;6.13;;;2.50;;
10293;SDS011;5192;50.328;7.610;2023-05-10T08:32:24;7.07;;;2.47;;
10293;SDS011;5192;50.328;7.610;2023-05-10T08:34:52;5.07;;;2.40;;
10293;SDS011;5192;50.328;7.610;2023-05-10T08:37:20;3.27;;;2.87;;
10293;SDS011;5192;50.328;7.610;2023-05-10T08:39:47;3.00;;;2.70;;
10293;SDS011;5192;50.328;7.610;2023-05-10T08:42:19;7.77;;;3.23;;
10293;SDS011;5192;50.328;7.610;2023-05-10T08:44:48;3.97;;;2.27;;
10293;SDS011;5192;50.328;7.610;2023-05-10T08:47:20;3.73;;;2.20;;
10293;SDS011;5192;50.328;7.610;2023-05-10T08:49:49;5.30;;;2.27;;
10293;SDS011;5192;50.328;7.610;2023-05-10T08:52:18;3.67;;;2.20;;
10293;SDS011;5192;50.328;7.610;2023-05-10T08:54:46;3.73;;;2.10;;
10293;SDS011;5192;50.328;7.610;2023-05-10T08:57:13;3.13;;;2.20;;
10293;SDS011;5192;50.328;7.610;2023-05-10T08:59:41;3.77;;;2.10;;
10293;SDS011;5192;50.328;7.610;2023-05-10T09:02:09;3.37;;;2.20;;
10293;SDS011;5192;50.328;7.610;2023-05-10T09:04:37;3.07;;;2.10;;
10293;SDS011;5192;50.328;7.610;2023-05-10T09:07:06;3.77;;;2.10;;
10293;SDS011;5192;50.328;7.610;2023-05-10T09:09:33;3.77;;;2.00;;
10293;SDS011;5192;50.328;7.610;2023-05-10T09:12:01;4.47;;;2.00;;
10293;SDS011;5192;50.328;7.610;2023-05-10T09:14:28;2.57;;;1.50;;
10293;SDS011;5192;50.328;7.610;2023-05-10T09:16:56;2.83;;;1.50;;
10293;SDS011;5192;50.328;7.610;2023-05-10T09:19:25;2.50;;;1.73;;
10293;SDS011;5192;50.328;7.610;2023-05-10T09:21:52;2.67;;;1.40;;
10293;SDS011;5192;50.328;7.610;2023-05-10T09:24:25;2.50;;;1.20;;
10293;SDS011;5192;50.328;7.610;2023-05-10T09:26:53;2.27;;;1.30;;
10293;SDS011;5192;50.328;7.610;2023-05-10T09:29:19;3.57;;;1.17;;
10293;SDS011;5192;50.328;7.610;2023-05-10T09:31:48;1.17;;;1.07;;
10293;SDS011;5192;50.328;7.610;2023-05-10T09:34:18;2.50;;;1.00;;
10293;SDS011;5192;50.328;7.610;2023-05-10T09:39:38;1.50;;;0.90;;
10293;SDS011;5192;50.328;7.610;2023-05-10T09:42:07;1.10;;;1.00;;
10293;SDS011;5192;50.328;7.610;2023-05-10T09:44:35;2.70;;;1.10;;
10293;SDS011;5192;50.328;7.610;2023-05-10T09:47:03;1.33;;;0.70;;
10293;SDS011;5192;50.328;7.610;2023-05-10T09:49:33;3.97;;;0.70;;
10293;SDS011;5192;50.328;7.610;2023-05-10T09:52:00;1.50;;;0.93;;
10293;SDS011;5192;50.328;7.610;2023-05-10T09:54:55;6.10;;;0.87;;
10293;SDS011;5192;50.328;7.610;2023-05-10T09:57:23;1.63;;;1.00;;
10293;SDS011;5192;50.328;7.610;2023-05-10T09:59:49;4.20;;;1.10;;
10293;SDS011;5192;50.328;7.610;2023-05-10T10:02:19;2.77;;;0.80;;
10293;SDS011;5192;50.328;7.610;2023-05-10T10:04:48;1.87;;;0.83;;
10293;SDS011;5192;50.328;7.610;2023-05-10T10:07:21;0.90;;;0.70;;
10293;SDS011;5192;50.328;7.610;2023-05-10T10:09:54;1.63;;;0.77;;
10293;SDS011;5192;50.328;7.610;2023-05-10T10:12:21;0.97;;;0.70;;
10293;SDS011;5192;50.328;7.610;2023-05-10T10:14:50;0.80;;;0.80;;
10293;SDS011;5192;50.328;7.610;2023-05-10T10:17:18;4.00;;;0.93;;
10293;SDS011;5192;50.328;7.610;2023-05-10T10:19:47;2.27;;;0.83;;
10293;SDS011;5192;50.328;7.610;2023-05-10T10:22:19;1.37;;;1.10;;
10293;SDS011;5192;50.328;7.610;2023-05-10T10:24:46;0.93;;;0.80;;
10293;SDS011;5192;50.328;7.610;2023-05-10T10:36:16;1.60;;;0.80;;
10293;SDS011;5192;50.328;7.610;2023-05-10T10:50:07;1.10;;;1.00;;
10293;SDS011;5192;50.328;7.610;2023-05-10T10:52:43;1.60;;;0.83;;
10293;SDS011;5192;50.328;7.610;2023-05-10T10:55:20;1.70;;;0.93;;
10293;SDS011;5192;50.328;7.610;2023-05-10T11:01:09;0.80;;;0.80;;
10293;SDS011;5192;50.328;7.610;2023-05-10T11:06:33;1.90;;;0.93;;
10293;SDS011;5192;50.328;7.610;2023-05-10T11:09:11;1.80;;;0.70;;
10293;SDS011;5192;50.328;7.610;2023-05-10T11:11:54;2.83;;;1.10;;
10293;SDS011;5192;50.328;7.610;2023-05-10T11:14:22;2.30;;;0.77;;
10293;SDS011;5192;50.328;7.610;2023-05-10T11:16:49;0.73;;;0.70;;
10293;SDS011;5192;50.328;7.610;2023-05-10T11:19:19;1.27;;;0.80;;
10293;SDS011;5192;50.328;7.610;2023-05-10T11:24:31;1.33;;;0.70;;
10293;SDS011;5192;50.328;7.610;2023-05-10T11:27:00;0.80;;;0.60;;
10293;SDS011;5192;50.328;7.610;2023-05-10T11:29:27;0.80;;;0.80;;
10293;SDS011;5192;50.328;7.610;2023-05-10T11:31:56;2.17;;;0.70;;
10293;SDS011;5192;50.328;7.610;2023-05-10T11:34:25;1.03;;;0.73;;
10293;SDS011;5192;50.328;7.610;2023-05-10T11:36:56;0.70;;;0.70;;
10293;SDS011;5192;50.328;7.610;2023-05-10T11:39:27;0.67;;;0.67;;
10293;SDS011;5192;50.328;7.610;2023-05-10T11:41:59;0.77;;;0.77;;
10293;SDS011;5192;50.328;7.610;2023-05-10T11:44:32;0.60;;;0.60;;
10293;SDS011;5192;50.328;7.610;2023-05-10T11:47:00;1.20;;;0.80;;
10293;SDS011;5192;50.328;7.610;2023-05-10T11:49:25;2.97;;;0.70;;
10293;SDS011;5192;50.328;7.610;2023-05-10T11:51:52;1.47;;;0.80;;
10293;SDS011;5192;50.328;7.610;2023-05-10T11:54:29;2.38;;;0.80;;
10293;SDS011;5192;50.328;7.610;2023-05-10T11:56:57;1.85;;;0.70;;
10293;SDS011;5192;50.328;7.610;2023-05-10T11:59:25;1.70;;;0.63;;
10293;SDS011;5192;50.328;7.610;2023-05-10T12:01:52;1.17;;;0.87;;
10293;SDS011;5192;50.328;7.610;2023-05-10T12:04:23;1.50;;;0.80;;
10293;SDS011;5192;50.328;7.610;2023-05-10T12:06:51;2.63;;;0.73;;
10293;SDS011;5192;50.328;7.610;2023-05-10T12:09:17;0.97;;;0.83;;
10293;SDS011;5192;50.328;7.610;2023-05-10T12:11:43;2.50;;;0.90;;
10293;SDS011;5192;50.328;7.610;2023-05-10T12:14:10;1.33;;;0.97;;
10293;SDS011;5192;50.328;7.610;2023-05-10T12:16:38;1.80;;;0.90;;
10293;SDS011;5192;50.328;7.610;2023-05-10T12:19:05;1.20;;;0.80;;
10293;SDS011;5192;50.328;7.610;2023-05-10T12:21:31;1.43;;;0.83;;
10293;SDS011;5192;50.328;7.610;2023-05-10T12:24:01;1.10;;;1.00;;
10293;SDS011;5192;50.328;7.610;2023-05-10T12:26:31;3.47;;;1.07;;
10293;SDS011;5192;50.328;7.610;2023-05-10T12:37:01;2.70;;;1.00;;
10293;SDS011;5192;50.328;7.610;2023-05-10T12:39:44;1.37;;;0.97;;
10293;SDS011;5192;50.328;7.610;2023-05-10T12:42:11;1.83;;;0.93;;
10293;SDS011;5192;50.328;7.610;2023-05-10T12:44:38;0.80;;;0.80;;
10293;SDS011;5192;50.328;7.610;2023-05-10T12:47:06;1.23;;;0.90;;
10293;SDS011;5192;50.328;7.610;2023-05-10T12:49:32;1.77;;;1.00;;
10293;SDS011;5192;50.328;7.610;2023-05-10T12:52:01;1.10;;;0.83;;
10293;SDS011;5192;50.328;7.610;2023-05-10T12:54:31;1.40;;;0.87;;
10293;SDS011;5192;50.328;7.610;2023-05-10T12:56:58;2.00;;;0.90;;
10293;SDS011;5192;50.328;7.610;2023-05-10T12:59:24;3.80;;;1.13;;
10293;SDS011;5192;50.328;7.610;2023-05-10T13:01:50;3.80;;;1.07;;
10293;SDS011;5192;50.328;7.610;2023-05-10T13:04:18;0.97;;;0.90;;
10293;SDS011;5192;50.328;7.610;2023-05-10T13:06:45;2.50;;;1.00;;
10293;SDS011;5192;50.328;7.610;2023-05-10T13:09:13;0.70;;;0.70;;
10293;SDS011;5192;50.328;7.610;2023-05-10T13:11:39;1.73;;;1.00;;
10293;SDS011;5192;50.328;7.610;2023-05-10T13:14:07;0.80;;;0.80;;
10293;SDS011;5192;50.328;7.610;2023-05-10T13:16:34;1.07;;;0.83;;
10293;SDS011;5192;50.328;7.610;2023-05-10T13:19:00;0.73;;;0.70;;
10293;SDS011;5192;50.328;7.610;2023-05-10T13:21:27;0.87;;;0.73;;
10293;SDS011;5192;50.328;7.610;2023-05-10T13:23:55;1.00;;;0.90;;
10293;SDS011;5192;50.328;7.610;2023-05-10T13:26:23;2.13;;;0.60;;
10293;SDS011;5192;50.328;7.610;2023-05-10T13:28:50;0.70;;;0.70;;
10293;SDS011;5192;50.328;7.610;2023-05-10T13:31:18;1.00;;;0.90;;
10293;SDS011;5192;50.328;7.610;2023-05-10T13:33:47;1.07;;;0.90;;
10293;SDS011;5192;50.328;7.610;2023-05-10T13:36:14;1.53;;;1.00;;
10293;SDS011;5192;50.328;7.610;2023-05-10T13:38:39;0.93;;;0.83;;
10293;SDS011;5192;50.328;7.610;2023-05-10T13:41:06;1.40;;;0.90;;
10293;SDS011;5192;50.328;7.610;2023-05-10T13:43:34;1.23;;;0.87;;
10293;SDS011;5192;50.328;7.610;2023-05-10T13:46:01;0.80;;;0.70;;
10293;SDS011;5192;50.328;7.610;2023-05-10T13:48:29;1.57;;;0.90;;
10293;SDS011;5192;50.328;7.610;2023-05-10T13:50:56;0.70;;;0.70;;
10293;SDS011;5192;50.328;7.610;2023-05-10T13:53:22;1.77;;;0.80;;
10293;SDS011;5192;50.328;7.610;2023-05-10T13:55:49;0.82;;;0.82;;
10293;SDS011;5192;50.328;7.610;2023-05-10T13:58:15;0.90;;;0.80;;
10293;SDS011;5192;50.328;7.610;2023-05-10T14:00:41;1.27;;;0.90;;
10293;SDS011;5192;50.328;7.610;2023-05-10T14:03:09;1.95;;;1.00;;
10293;SDS011;5192;50.328;7.610;2023-05-10T14:05:37;1.40;;;1.08;;
10293;SDS011;5192;50.328;7.610;2023-05-10T14:08:04;1.10;;;0.90;;
10293;SDS011;5192;50.328;7.610;2023-05-10T14:10:36;0.85;;;0.80;;
10293;SDS011;5192;50.328;7.610;2023-05-10T14:13:04;1.08;;;0.90;;
10293;SDS011;5192;50.328;7.610;2023-05-10T14:15:31;0.60;;;0.60;;
10293;SDS011;5192;50.328;7.610;2023-05-10T14:17:59;1.48;;;0.90;;
10293;SDS011;5192;50.328;7.610;2023-05-10T14:20:29;1.42;;;0.90;;
10293;SDS011;5192;50.328;7.610;2023-05-10T14:22:59;0.80;;;0.80;;
10293;SDS011;5192;50.328;7.610;2023-05-10T14:25:27;0.85;;;0.75;;
10293;SDS011;5192;50.328;7.610;2023-05-10T14:27:53;0.70;;;0.70;;
10293;SDS011;5192;50.328;7.610;2023-05-10T14:30:21;8.25;;;0.90;;
10293;SDS011;5192;50.328;7.610;2023-05-10T14:32:48;0.70;;;0.70;;
10293;SDS011;5192;50.328;7.610;2023-05-10T14:35:15;0.98;;;0.70;;
10293;SDS011;5192;50.328;7.610;2023-05-10T14:37:40;0.80;;;0.80;;
10293;SDS011;5192;50.328;7.610;2023-05-10T14:40:07;0.85;;;0.80;;
10293;SDS011;5192;50.328;7.610;2023-05-10T14:42:34;5.28;;;1.20;;
10293;SDS011;5192;50.328;7.610;2023-05-10T14:45:03;1.27;;;0.90;;
10293;SDS011;5192;50.328;7.610;2023-05-10T14:47:31;1.88;;;1.20;;
10293;SDS011;5192;50.328;7.610;2023-05-10T14:49:58;3.08;;;1.20;;
10293;SDS011;5192;50.328;7.610;2023-05-10T14:52:26;3.45;;;1.30;;
10293;SDS011;5192;50.328;7.610;2023-05-10T14:54:58;1.10;;;1.00;;
10293;SDS011;5192;50.328;7.610;2023-05-10T14:57:25;1.58;;;1.00;;
10293;SDS011;5192;50.328;7.610;2023-05-10T14:59:56;3.10;;;1.55;;
10293;SDS011;5192;50.328;7.610;2023-05-10T15:02:23;1.67;;;1.38;;
10293;SDS011;5192;50.328;7.610;2023-05-10T15:04:51;1.30;;;1.17;;
10293;SDS011;5192;50.328;7.610;2023-05-10T15:07:18;1.48;;;0.90;;
10293;SDS011;5192;50.328;7.610;2023-05-10T15:09:46;0.93;;;0.90;;
10293;SDS011;5192;50.328;7.610;2023-05-10T15:12:13;2.45;;;1.30;;
10293;SDS011;5192;50.328;7.610;2023-05-10T15:14:40;1.17;;;1.02;;
10293;SDS011;5192;50.328;7.610;2023-05-10T15:17:07;1.42;;;1.00;;
10293;SDS011;5192;50.328;7.610;2023-05-10T15:19:35;2.13;;;1.15;;
10293;SDS011;5192;50.328;7.610;2023-05-10T15:22:03;1.20;;;1.10;;
10293;SDS011;5192;50.328;7.610;2023-05-10T15:24:29;3.50;;;1.20;;
10293;SDS011;5192;50.328;7.610;2023-05-10T15:26:57;2.03;;;1.10;;
10293;SDS011;5192;50.328;7.610;2023-05-10T15:29:24;0.80;;;0.80;;
10293;SDS011;5192;50.328;7.610;2023-05-10T15:31:51;1.33;;;0.83;;
10293;SDS011;5192;50.328;7.610;2023-05-10T15:34:18;1.38;;;1.08;;
10293;SDS011;5192;50.328;7.610;2023-05-10T15:36:45;3.75;;;2.40;;
10293;SDS011;5192;50.328;7.610;2023-05-10T15:39:12;1.98;;;1.10;;
10293;SDS011;5192;50.328;7.610;2023-05-10T15:41:38;1.07;;;0.97;;
10293;SDS011;5192;50.328;7.610;2023-05-10T15:44:05;1.88;;;0.70;;
10293;SDS011;5192;50.328;7.610;2023-05-10T15:46:32;1.33;;;1.23;;
10293;SDS011;5192;50.328;7.610;2023-05-10T15:48:59;1.85;;;0.90;;
10293;SDS011;5192;50.328;7.610;2023-05-10T15:51:26;1.07;;;0.70;;
10293;SDS011;5192;50.328;7.610;2023-05-10T15:53:53;1.43;;;0.60;;
10293;SDS011;5192;50.328;7.610;2023-05-10T15:56:18;2.03;;;0.70;;
10293;SDS011;5192;50.328;7.610;2023-05-10T15:58:45;1.47;;;0.80;;
10293;SDS011;5192;50.328;7.610;2023-05-10T16:01:12;1.30;;;0.80;;
10293;SDS011;5192;50.328;7.610;2023-05-10T16:03:38;0.70;;;0.60;;
10293;SDS011;5192;50.328;7.610;2023-05-10T16:06:08;3.23;;;0.90;;
10293;SDS011;5192;50.328;7.610;2023-05-10T16:08:34;0.93;;;0.70;;